Latest Weather Observations for Gold Coast Seaway

IDQ60901

Issued at 4:41 pm EST Friday 19 April 2019 (issued every 10 minutes, with the page automatically refreshed every 10 minutes)

About weather observations | Map of Brisbane area stations | Latest observations for Brisbane area | Other Formats
Station Details ID: 040764 Name: GOLD COAST SEAWAY Lat: -27.94 Lon: 153.43 Height: 2.98 m
Data from the previous 72 hours. | See also: Recent months at Gold Coast Seaway
Date/Time
EST
Temp
°C
App
Temp
°C
Dew
Point
°C
Rel
Hum
%
Delta-T
°C
Wind Press
QNH
hPa
Press
MSL
hPa
Rain since
9am
mm
Dir  Spd
km/h
Gust
km/h
Spd
kts
Gust
kts
19/04:30pm 23.6 21.0 22.2 92 0.9 SE 39 46 21 25 1021.0 1021.0 9.0
19/04:00pm 23.4 20.2 21.8 91 1.1 SE 41 48 22 26 1021.0 1021.0 9.0
19/03:30pm 24.1 22.1 22.5 91 1.1 SE 37 44 20 24 1020.8 1020.8 9.0
19/03:00pm 23.3 21.1 22.8 97 0.3 SE 39 50 21 27 1020.9 1020.9 9.0
19/02:30pm 22.4 19.8 22.2 99 0.1 SE 39 65 21 35 1021.0 1021.0 8.6
19/02:00pm 22.4 20.2 22.2 99 0.1 SE 37 59 20 32 1021.0 1021.0 6.4
19/01:52pm 22.6 19.7 21.6 94 0.7 SE 39 59 21 32 1021.2 1021.2 3.8
19/01:30pm 24.1 22.1 22.5 91 1.1 SE 37 44 20 24 1021.2 1021.2 2.6
19/01:00pm 24.5 22.5 22.6 89 1.3 SE 37 46 20 25 1021.2 1021.2 2.6
19/12:30pm 24.2 23.5 23.5 96 0.5 SSE 33 46 18 25 1021.9 1021.9 2.6
19/12:19pm 23.4 21.6 22.2 93 0.8 SSE 35 54 19 29 1022.0 1022.0 2.6
19/12:00pm 24.6 23.3 23.2 92 0.9 SE 35 43 19 23 1022.2 1022.2 2.6
19/11:39am 22.6 19.8 22.4 99 0.1 SSE 41 57 22 31 1022.6 1022.6 2.6
19/11:30am 22.3 22.8 22.0 98 0.2 SSE 22 37 12 20 1022.9 1022.9 2.4
19/11:00am 24.6 23.4 22.3 87 1.5 SSE 32 37 17 20 1023.2 1023.2 0.2
19/10:30am 24.3 23.3 22.6 90 1.1 SSE 32 41 17 22 1023.5 1023.5 0.2
19/10:00am 23.0 21.4 21.8 93 0.8 SSE 33 41 18 22 1023.7 1023.7 0.2
19/09:30am 23.1 21.4 22.4 96 0.5 SSE 35 43 19 23 1023.8 1023.8 0.2
19/09:00am 22.7 21.4 22.4 98 0.2 SSE 33 41 18 22 1024.0 1024.0 9.8
19/08:30am 21.7 19.5 21.5 99 0.1 SSE 35 43 19 23 1024.0 1024.0 9.8
19/08:00am 20.7 20.9 20.5 99 0.1 S 20 32 11 17 1023.5 1023.5 9.2
19/07:30am 20.7 20.1 20.5 99 0.1 S 24 41 13 22 1023.2 1023.2 8.6
19/07:00am 20.3 20.8 20.0 98 0.2 S 17 26 9 14 1023.0 1023.0 7.2
19/06:30am 20.4 19.7 20.2 99 0.1 S 24 37 13 20 1022.7 1022.7 7.2
19/06:00am 20.1 18.8 19.9 99 0.1 S 26 39 14 21 1022.3 1022.3 7.2
19/05:30am 19.9 19.7 19.7 99 0.1 S 20 32 11 17 1022.1 1022.1 7.2
19/05:00am 19.8 20.1 19.6 99 0.1 S 17 24 9 13 1021.9 1021.9 7.0
19/04:30am 19.7 19.4 19.5 99 0.1 S 20 28 11 15 1021.6 1021.6 6.6
19/04:00am 19.9 19.3 19.7 99 0.1 S 22 28 12 15 1021.6 1021.6 6.6
19/03:30am 20.2 19.0 20.0 99 0.1 S 26 33 14 18 1021.7 1021.7 6.6
19/03:00am 20.1 19.6 19.9 99 0.1 S 22 33 12 18 1021.7 1021.7 4.0
19/02:30am 20.1 19.2 19.8 98 0.2 S 24 32 13 17 1021.9 1021.9 4.0
19/02:00am 20.1 19.9 19.8 98 0.2 S 20 30 11 16 1022.2 1022.2 3.2
19/01:30am 20.2 19.6 19.7 97 0.3 S 22 32 12 17 1022.5 1022.5 2.6
19/01:00am 20.2 19.6 19.7 97 0.3 S 22 30 12 16 1022.8 1022.8 2.6
19/12:41am 20.8 19.0 20.3 97 0.3 S 30 43 16 23 1023.0 1023.0 2.4
19/12:30am 20.4 20.7 19.6 95 0.5 S 17 22 9 12 1022.9 1022.9 1.6
19/12:00am 20.4 20.1 19.6 95 0.5 S 20 30 11 16 1023.0 1023.0 1.4
 
Date/Time
EST
Temp
°C
App
Temp
°C
Dew
Point
°C
Rel
Hum
%
Delta-T
°C
Wind Press
QNH
hPa
Press
MSL
hPa
Rain since
9am
mm
Dir  Spd
km/h
Gust
km/h
Spd
kts
Gust
kts
18/11:30pm 20.4 19.7 19.6 95 0.5 S 22 30 12 16 1023.1 1023.1 1.2
18/11:00pm 20.6 20.4 19.8 95 0.5 S 20 35 11 19 1023.4 1023.4 1.2
18/10:30pm 20.5 21.1 19.5 94 0.6 SSW 15 22 8 12 1023.4 1023.4 1.0
18/10:00pm 20.8 20.6 19.8 94 0.6 S 20 32 11 17 1023.4 1023.4 1.0
18/09:30pm 22.1 19.8 20.6 91 1.0 S 33 39 18 21 1023.5 1023.5 0.0
18/09:00pm 22.0 19.9 19.7 87 1.5 S 30 35 16 19 1023.3 1023.3 0.0
18/08:30pm 22.1 21.1 19.6 86 1.6 S 24 33 13 18 1023.2 1023.2 0.0
18/08:00pm 21.7 21.5 19.3 86 1.5 S 19 28 10 15 1022.9 1022.9 0.0
18/07:30pm 22.1 20.6 19.5 85 1.7 S 26 32 14 17 1022.6 1022.6 0.0
18/07:00pm 22.3 20.6 19.8 86 1.6 S 28 33 15 18 1022.5 1022.5 0.0
18/06:30pm 22.3 21.9 19.3 83 1.9 S 20 30 11 16 1022.1 1022.1 0.0
18/06:00pm 22.5 21.2 19.1 81 2.1 S 24 30 13 16 1021.8 1021.8 0.0
18/05:30pm 23.3 20.9 19.9 81 2.2 SSE 32 39 17 21 1021.5 1021.5 0.0
18/05:00pm 23.8 20.6 19.5 77 2.7 SSE 35 41 19 22 1021.2 1021.2 0.0
18/04:30pm 24.1 21.2 20.0 78 2.6 SSE 35 46 19 25 1020.9 1020.9 0.0
18/04:00pm 24.6 21.5 19.7 74 3.1 SSE 35 41 19 22 1020.7 1020.7 0.0
18/03:30pm 24.9 21.8 19.7 73 3.4 SE 35 41 19 22 1020.6 1020.6 0.0
18/03:00pm 25.4 22.1 20.9 76 3.0 SE 39 46 21 25 1020.7 1020.7 0.0
18/02:30pm 25.7 22.4 20.9 75 3.2 SE 39 46 21 25 1020.7 1020.7 0.0
18/02:00pm 26.1 23.2 20.9 73 3.4 SE 37 46 20 25 1020.6 1020.6 0.0
18/01:30pm 26.6 24.4 20.4 69 4.1 SE 32 37 17 20 1020.8 1020.8 0.0
18/01:00pm 26.9 25.3 21.6 72 3.5 SE 32 37 17 20 1021.2 1021.2 0.0
18/12:30pm 26.8 25.3 20.9 70 3.9 SE 30 35 16 19 1021.6 1021.6 0.0
18/12:00pm 27.4 27.4 21.7 71 3.8 SSE 24 30 13 16 1021.9 1021.9 0.0
18/11:30am 27.0 26.3 21.1 70 3.9 SSE 26 32 14 17 1022.4 1022.4 0.0
18/11:00am 26.6 25.2 20.4 69 4.0 SSE 28 32 15 17 1022.8 1022.8 0.0
18/10:30am 26.6 25.4 20.9 71 3.8 SSE 28 33 15 18 1022.9 1022.9 0.0
18/10:00am 25.8 25.0 20.1 71 3.7 SSE 24 30 13 16 1023.1 1023.1 0.0
18/09:30am 24.9 23.5 19.7 73 3.4 S 26 32 14 17 1023.0 1023.0 0.0
18/09:00am 24.5 23.5 19.6 74 3.1 S 24 32 13 17 1023.0 1023.0 0.0
18/08:30am 23.7 23.3 19.4 77 2.7 S 20 30 11 16 1022.9 1022.9 0.0
18/08:00am 22.3 21.7 18.5 79 2.4 S 19 26 10 14 1022.7 1022.7 0.0
18/07:30am 21.1 21.3 18.5 85 1.6 SSW 15 22 8 12 1022.3 1022.3 0.0
18/07:00am 20.0 20.7 18.0 88 1.2 SSW 11 15 6 8 1022.0 1022.0 0.0
18/06:30am 19.1 19.0 17.8 92 0.8 SSW 15 20 8 11 1021.7 1021.7 0.0
18/06:00am 18.7 19.6 17.5 93 0.7 SSW 9 13 5 7 1021.3 1021.3 0.0
18/05:30am 18.8 18.6 17.6 93 0.7 SSW 15 20 8 11 1021.0 1021.0 0.0
18/05:00am 18.6 18.4 17.6 94 0.6 SSW 15 19 8 10 1020.9 1020.9 0.0
18/04:30am 18.5 19.3 17.3 93 0.7 SSW 9 13 5 7 1020.9 1020.9 0.0
18/04:00am 18.8 19.4 17.8 94 0.6 SW 11 15 6 8 1020.8 1020.8 0.0
18/03:30am 18.7 18.9 17.7 94 0.6 SSW 13 17 7 9 1020.7 1020.7 0.0
18/03:00am 18.8 19.4 17.8 94 0.6 SSW 11 15 6 8 1020.8 1020.8 0.0
18/02:30am 19.0 19.7 18.0 94 0.6 SW 11 17 6 9 1020.9 1020.9 0.0
18/02:00am 19.1 20.2 17.9 93 0.7 SW 9 13 5 7 1021.2 1021.2 0.0
18/01:30am 19.2 19.9 18.0 93 0.7 SW 11 15 6 8 1021.3 1021.3 0.0
18/01:00am 19.6 20.7 18.1 91 0.9 SW 9 15 5 8 1021.6 1021.6 0.0
18/12:30am 19.7 20.0 18.0 90 1.0 SSW 13 17 7 9 1021.8 1021.8 0.0
18/12:00am 19.6 20.3 17.9 90 1.0 SSW 11 15 6 8 1022.0 1022.0 0.0
 
Date/Time
EST
Temp
°C
App
Temp
°C
Dew
Point
°C
Rel
Hum
%
Delta-T
°C
Wind Press
QNH
hPa
Press
MSL
hPa
Rain since
9am
mm
Dir  Spd
km/h
Gust
km/h
Spd
kts
Gust
kts
17/11:30pm 19.8 20.2 18.1 90 1.1 SSW 13 19 7 10 1021.9 1021.9 0.0
17/11:00pm 20.0 20.1 18.3 90 1.1 SSW 15 20 8 11 1022.1 1022.1 0.0
17/10:30pm 20.0 20.5 18.3 90 1.1 SSW 13 19 7 10 1022.2 1022.2 0.0
17/10:00pm 20.2 20.4 18.5 90 1.1 SSW 15 20 8 11 1022.2 1022.2 0.0
17/09:30pm 20.1 20.2 18.4 90 1.1 SSW 15 19 8 10 1022.4 1022.4 0.0
17/09:00pm 20.2 20.4 18.5 90 1.1 SSW 15 19 8 10 1022.3 1022.3 0.0
17/08:30pm 20.3 20.1 18.6 90 1.1 S 17 20 9 11 1022.2 1022.2 0.0
17/08:00pm 20.5 20.7 18.6 89 1.2 S 15 19 8 10 1022.0 1022.0 0.0
17/07:30pm 20.9 19.2 19.0 89 1.2 S 26 32 14 17 1021.8 1021.8 0.0
17/07:00pm 20.9 20.6 19.6 92 0.8 SSE 20 28 11 15 1021.6 1021.6 0.0
17/06:30pm 21.1 21.0 19.9 93 0.8 S 20 26 11 14 1021.1 1021.1 0.0
17/06:00pm 21.9 19.8 19.8 88 1.3 SSE 30 39 16 21 1021.0 1021.0 0.0
17/05:30pm 22.0 21.5 19.0 83 1.9 S 20 26 11 14 1020.7 1020.7 0.0
17/05:00pm 23.1 21.0 19.7 81 2.2 SSE 30 35 16 19 1020.4 1020.4 0.0
17/04:30pm 24.1 23.2 19.8 77 2.8 SSE 24 35 13 19 1020.1 1020.1 0.0
17/04:00pm 24.4 23.5 19.9 76 2.9 S 24 32 13 17 1019.9 1019.9 0.0
17/03:30pm 25.0 23.0 20.0 74 3.2 SE 30 35 16 19 1019.8 1019.8 0.0
17/03:00pm 25.5 24.0 21.0 76 3.0 SE 30 35 16 19 1019.6 1019.6 0.0
17/02:30pm 25.7 23.7 20.7 74 3.3 SE 32 39 17 21 1019.8 1019.8 0.0
17/02:00pm 25.7 23.9 20.3 72 3.5 SE 30 35 16 19 1019.7 1019.7 0.0
17/01:30pm 26.2 24.0 20.3 70 3.9 SE 32 37 17 20 1019.9 1019.9 0.0
17/01:00pm 26.1 24.0 20.9 73 3.4 SE 33 39 18 21 1020.0 1020.0 0.0
17/12:30pm 25.8 23.5 20.1 71 3.7 SE 32 39 17 21 1020.4 1020.4 0.0
17/12:00pm 26.8 25.0 21.6 73 3.5 SE 33 43 18 23 1020.7 1020.7 0.0
17/11:30am 26.6 25.1 20.2 68 4.2 SSE 28 35 15 19 1021.1 1021.1 0.0
17/11:00am 26.1 24.4 19.7 68 4.1 SSE 28 33 15 18 1021.5 1021.5 0.0
17/10:30am 25.9 23.9 20.0 70 3.8 S 30 35 16 19 1021.7 1021.7 0.0
17/10:00am 25.1 23.4 19.7 72 3.5 S 28 35 15 19 1021.8 1021.8 0.0
17/09:30am 24.5 21.6 19.3 73 3.3 S 33 39 18 21 1021.9 1021.9 0.0
17/09:00am 23.8 20.9 18.9 74 3.1 S 32 37 17 20 1021.8 1021.8 0.0
17/08:30am 23.4 20.5 18.9 76 2.9 S 32 41 17 22 1021.7 1021.7 0.0
17/08:00am 22.9 21.3 18.4 76 2.8 S 24 32 13 17 1021.4 1021.4 0.0
17/07:30am 21.6 20.9 18.2 81 2.1 S 19 26 10 14 1021.2 1021.2 0.0
17/07:00am 20.4 19.3 17.4 83 1.8 S 19 30 10 16 1020.9 1020.9 0.0
17/06:30am 19.5 18.4 17.3 87 1.3 S 19 26 10 14 1020.7 1020.7 0.0
17/06:00am 19.1 18.3 17.2 89 1.2 S 17 24 9 13 1020.4 1020.4 0.0
17/05:30am 19.0 18.3 17.3 90 1.0 SSW 17 26 9 14 1020.2 1020.2 0.0
17/05:00am 18.6 18.1 16.9 90 1.0 SSW 15 22 8 12 1020.0 1020.0 0.0
17/04:30am 18.6 18.5 16.9 90 1.0 SSW 13 20 7 11 1019.7 1019.7 0.0
17/04:00am 18.4 19.0 16.9 91 0.9 SSW 9 15 5 8 1019.5 1019.5 0.0
17/03:30am 18.4 18.7 16.9 91 0.9 SW 11 15 6 8 1019.6 1019.6 0.0
17/03:00am 18.7 19.4 17.0 90 1.0 SW 9 13 5 7 1019.5 1019.5 0.0
17/02:30am 19.3 18.7 16.7 85 1.6 SSW 15 20 8 11 1019.7 1019.7 0.0
17/02:00am 19.8 17.7 17.2 85 1.6 S 24 32 13 17 1019.9 1019.9 0.0
17/01:30am 19.5 17.8 17.1 86 1.5 S 22 30 12 16 1020.3 1020.3 0.0
17/01:00am 19.4 18.6 17.2 87 1.3 SSW 17 26 9 14 1020.5 1020.5 0.0
17/12:30am 19.4 17.9 16.8 85 1.6 S 20 30 11 16 1020.8 1020.8 0.0
17/12:00am 19.9 17.0 17.1 84 1.7 S 28 35 15 19 1020.9 1020.9 0.0
 
Date/Time
EST
Temp
°C
App
Temp
°C
Dew
Point
°C
Rel
Hum
%
Delta-T
°C
Wind Press
QNH
hPa
Press
MSL
hPa
Rain since
9am
mm
Dir  Spd
km/h
Gust
km/h
Spd
kts
Gust
kts
16/11:30pm 19.4 18.6 17.0 86 1.5 S 17 24 9 13 1021.1 1021.1 0.0
16/11:00pm 19.4 18.5 16.8 85 1.6 S 17 24 9 13 1021.2 1021.2 0.0
16/10:30pm 19.6 18.7 16.8 84 1.7 S 17 20 9 11 1021.4 1021.4 0.0
16/10:00pm 19.8 18.4 17.0 84 1.7 S 20 26 11 14 1021.5 1021.5 0.0
16/09:30pm 19.9 19.1 17.1 84 1.7 S 17 28 9 15 1021.7 1021.7 0.0
16/09:00pm 20.2 18.5 17.2 83 1.8 S 22 32 12 17 1021.8 1021.8 0.0
16/08:30pm 20.7 17.8 17.9 84 1.7 S 30 35 16 19 1021.8 1021.8 0.0
16/08:00pm 21.0 18.9 18.0 83 1.9 S 26 33 14 18 1021.6 1021.6 0.0
16/07:30pm 20.6 19.5 17.8 84 1.7 S 20 37 11 20 1021.3 1021.3 0.0
16/07:00pm 20.7 20.2 17.7 83 1.8 S 17 24 9 13 1021.0 1021.0 0.0
16/06:30pm 21.0 20.4 17.6 81 2.1 S 17 26 9 14 1020.7 1020.7 0.0
16/06:00pm 21.5 20.7 18.1 81 2.1 S 19 28 10 15 1020.5 1020.5 0.0
16/05:30pm 22.2 21.4 18.4 79 2.4 S 20 30 11 16 1020.0 1020.0 0.0
16/05:00pm 22.8 20.4 19.0 79 2.4 SSE 30 35 16 19 1019.6 1019.6 0.0

Latest Capital City Observations: Canberra | Sydney | Melbourne | Brisbane | Adelaide | Perth | Hobart | Darwin

Other formats

Comma delimited format used in spreadsheet applications
http://www.bom.gov.au/fwo/IDQ60901/IDQ60901.94580.axf

JavaScript Object Notation format (JSON) in row-major order
http://www.bom.gov.au/fwo/IDQ60901/IDQ60901.94580.json

Data quality

Most of these data are generated automatically and are frequently updated. Quality checks on data are not normally performed. It is possible for incorrect values to appear. Refer to information at About Latest Weather Observations and please check the disclaimer before using these data.